PWSweather.com
Personal Weather Stations
Station Observations
KMDSOLOM1
solomons, Solomons, MD 20688

solomonsSolomons, MD 20688

Lat: 38.32, Lon: -76.45

Elevation: 5

Station Type:

http://www.act-us.info/weather

High Low Average
Temperature 25.1°F-3.8°C 22.2°F-5.4°C 23.2°F-4.9°C
Dew Point 20.3°F-6.5°C 12.6°F-10.8°C 17.0°F-8.3°C
Winds 14.0 mph 22.5 kmh Calm Calm 5.0 mph WNW8.0 kmh WNW
Wind Gusts 16.0 mph25.7 kmh 3.0 mph4.8 kmh 9.0 mph14.5 kmh
Humidity 87% 63% 77%
Pressure 30.38 in1028.8 mb 30.26 in1024.7 mb -
Precipitation 0.00 in0.0 mm - -
Hour Temp Dew Point Humidity Winds Wind Gusts Pressure Precip Precip Rate Daily Precip Total
12:00 AM 24.8°F-4.0°C 17.7°F-7.9°C 74% 8.0 mph NNW12.9 kmh NNW 9.0 mph14.5 kmh 30.35 in1027.8 mb 0.00 in0.0 mm 0.00 in0.0 mm 0.00 in0.0 mm
12:05 AM 24.5°F-4.2°C 17.4°F-8.1°C 74% 5.0 mph NW8.0 kmh NW 9.0 mph14.5 kmh 30.35 in1027.8 mb 0.00 in0.0 mm 0.00 in0.0 mm 0.00 in0.0 mm
12:10 AM 24.1°F-4.4°C 17.0°F-8.3°C 74% 4.0 mph NW6.4 kmh NW 9.0 mph14.5 kmh 30.34 in1027.4 mb 0.00 in0.0 mm 0.00 in0.0 mm 0.00 in0.0 mm
12:15 AM 23.8°F-4.6°C 17.1°F-8.3°C 75% 6.0 mph NW9.7 kmh NW 8.0 mph12.9 kmh 30.34 in1027.4 mb 0.00 in0.0 mm 0.00 in0.0 mm 0.00 in0.0 mm
12:20 AM 23.6°F-4.7°C 16.5°F-8.6°C 74% 5.0 mph NW8.0 kmh NW 8.0 mph12.9 kmh 30.35 in1027.8 mb 0.00 in0.0 mm 0.00 in0.0 mm 0.00 in0.0 mm
12:25 AM 23.5°F-4.7°C 16.5°F-8.6°C 74% 5.0 mph NNW8.0 kmh NNW 9.0 mph14.5 kmh 30.35 in1027.8 mb 0.00 in0.0 mm 0.00 in0.0 mm 0.00 in0.0 mm
12:30 AM 23.4°F-4.8°C 16.0°F-8.9°C 73% 6.0 mph NW9.7 kmh NW 9.0 mph14.5 kmh 30.35 in1027.8 mb 0.00 in0.0 mm 0.00 in0.0 mm 0.00 in0.0 mm
12:35 AM 23.3°F-4.8°C 15.6°F-9.1°C 72% 4.0 mph NNW6.4 kmh NNW 9.0 mph14.5 kmh 30.35 in1027.8 mb 0.00 in0.0 mm 0.00 in0.0 mm 0.00 in0.0 mm
12:40 AM 23.1°F-4.9°C 15.4°F-9.2°C 72% 5.0 mph NNW8.0 kmh NNW 9.0 mph14.5 kmh 30.35 in1027.8 mb 0.00 in0.0 mm 0.00 in0.0 mm 0.00 in0.0 mm
12:45 AM 23.0°F-5.0°C 15.3°F-9.3°C 72% 3.0 mph NNW4.8 kmh NNW 5.0 mph8.0 kmh 30.35 in1027.8 mb 0.00 in0.0 mm 0.00 in0.0 mm 0.00 in0.0 mm
12:50 AM 22.8°F-5.1°C 14.8°F-9.6°C 71% 3.0 mph NNW4.8 kmh NNW 6.0 mph9.7 kmh 30.35 in1027.8 mb 0.00 in0.0 mm 0.00 in0.0 mm 0.00 in0.0 mm
12:55 AM 22.8°F-5.1°C 14.8°F-9.6°C 71% 4.0 mph NNW6.4 kmh NNW 8.0 mph12.9 kmh 30.35 in1027.8 mb 0.00 in0.0 mm 0.00 in0.0 mm 0.00 in0.0 mm
01:00 AM 22.7°F-5.2°C 14.7°F-9.6°C 71% 5.0 mph NW8.0 kmh NW 9.0 mph14.5 kmh 30.35 in1027.8 mb 0.00 in0.0 mm 0.00 in0.0 mm 0.00 in0.0 mm
01:05 AM 22.7°F-5.2°C 14.4°F-9.8°C 70% 5.0 mph NW8.0 kmh NW 9.0 mph14.5 kmh 30.35 in1027.8 mb 0.00 in0.0 mm 0.00 in0.0 mm 0.00 in0.0 mm
01:10 AM 22.6°F-5.2°C 14.3°F-9.8°C 70% 3.0 mph NW4.8 kmh NW 9.0 mph14.5 kmh 30.34 in1027.4 mb 0.00 in0.0 mm 0.00 in0.0 mm 0.00 in0.0 mm
01:15 AM 22.6°F-5.2°C 14.3°F-9.8°C 70% 1.0 mph NW1.6 kmh NW 5.0 mph8.0 kmh 30.35 in1027.8 mb 0.00 in0.0 mm 0.00 in0.0 mm 0.00 in0.0 mm
01:20 AM 22.6°F-5.2°C 14.3°F-9.8°C 70% 3.0 mph NW4.8 kmh NW 5.0 mph8.0 kmh 30.35 in1027.8 mb 0.00 in0.0 mm 0.00 in0.0 mm 0.00 in0.0 mm
01:25 AM 22.8°F-5.1°C 14.5°F-9.7°C 70% 2.0 mph NW3.2 kmh NW 5.0 mph8.0 kmh 30.35 in1027.8 mb 0.00 in0.0 mm 0.00 in0.0 mm 0.00 in0.0 mm
01:30 AM 22.9°F-5.1°C 14.3°F-9.8°C 69% 3.0 mph NW4.8 kmh NW 4.0 mph6.4 kmh 30.35 in1027.8 mb 0.00 in0.0 mm 0.00 in0.0 mm 0.00 in0.0 mm
01:35 AM 22.8°F-5.1°C 14.2°F-9.9°C 69% 2.0 mph NW3.2 kmh NW 4.0 mph6.4 kmh 30.35 in1027.8 mb 0.00 in0.0 mm 0.00 in0.0 mm 0.00 in0.0 mm
01:40 AM 22.7°F-5.2°C 14.1°F-9.9°C 69% Calm Calm 4.0 mph6.4 kmh 30.35 in1027.8 mb 0.00 in0.0 mm 0.00 in0.0 mm 0.00 in0.0 mm
01:45 AM 22.7°F-5.2°C 14.1°F-9.9°C 69% 1.0 mph NW1.6 kmh NW 3.0 mph4.8 kmh 30.35 in1027.8 mb 0.00 in0.0 mm 0.00 in0.0 mm 0.00 in0.0 mm
01:50 AM 22.6°F-5.2°C 14.0°F-10.0°C 69% 1.0 mph NW1.6 kmh NW 3.0 mph4.8 kmh 30.35 in1027.8 mb 0.00 in0.0 mm 0.00 in0.0 mm 0.00 in0.0 mm
01:55 AM 22.5°F-5.3°C 14.2°F-9.9°C 70% 3.0 mph NW4.8 kmh NW 4.0 mph6.4 kmh 30.35 in1027.8 mb 0.00 in0.0 mm 0.00 in0.0 mm 0.00 in0.0 mm
02:00 AM 22.5°F-5.3°C 14.2°F-9.9°C 70% 3.0 mph NW4.8 kmh NW 4.0 mph6.4 kmh 30.35 in1027.8 mb 0.00 in0.0 mm 0.00 in0.0 mm 0.00 in0.0 mm
02:05 AM 22.5°F-5.3°C 14.5°F-9.7°C 71% 2.0 mph NW3.2 kmh NW 4.0 mph6.4 kmh 30.35 in1027.8 mb 0.00 in0.0 mm 0.00 in0.0 mm 0.00 in0.0 mm
02:10 AM 22.5°F-5.3°C 14.5°F-9.7°C 71% Calm Calm 4.0 mph6.4 kmh 30.35 in1027.8 mb 0.00 in0.0 mm 0.00 in0.0 mm 0.00 in0.0 mm
02:15 AM 22.4°F-5.3°C 14.8°F-9.6°C 72% 2.0 mph NW3.2 kmh NW 3.0 mph4.8 kmh 30.35 in1027.8 mb 0.00 in0.0 mm 0.00 in0.0 mm 0.00 in0.0 mm
02:20 AM 22.5°F-5.3°C 15.2°F-9.3°C 73% 3.0 mph NW4.8 kmh NW 4.0 mph6.4 kmh 30.35 in1027.8 mb 0.00 in0.0 mm 0.00 in0.0 mm 0.00 in0.0 mm
02:25 AM 22.5°F-5.3°C 15.2°F-9.3°C 73% 3.0 mph NW4.8 kmh NW 4.0 mph6.4 kmh 30.35 in1027.8 mb 0.00 in0.0 mm 0.00 in0.0 mm 0.00 in0.0 mm
02:30 AM 22.5°F-5.3°C 15.2°F-9.3°C 73% 3.0 mph NW4.8 kmh NW 5.0 mph8.0 kmh 30.35 in1027.8 mb 0.00 in0.0 mm 0.00 in0.0 mm 0.00 in0.0 mm
02:35 AM 22.5°F-5.3°C 15.2°F-9.3°C 73% 2.0 mph NW3.2 kmh NW 5.0 mph8.0 kmh 30.35 in1027.8 mb 0.00 in0.0 mm 0.00 in0.0 mm 0.00 in0.0 mm
02:40 AM 22.4°F-5.3°C 15.4°F-9.2°C 74% 4.0 mph NW6.4 kmh NW 5.0 mph8.0 kmh 30.35 in1027.8 mb 0.00 in0.0 mm 0.00 in0.0 mm 0.00 in0.0 mm
02:45 AM 22.4°F-5.3°C 15.4°F-9.2°C 74% 3.0 mph NW4.8 kmh NW 4.0 mph6.4 kmh 30.35 in1027.8 mb 0.00 in0.0 mm 0.00 in0.0 mm 0.00 in0.0 mm
02:50 AM 22.3°F-5.4°C 15.3°F-9.3°C 74% 2.0 mph NW3.2 kmh NW 4.0 mph6.4 kmh 30.36 in1028.1 mb 0.00 in0.0 mm 0.00 in0.0 mm 0.00 in0.0 mm
02:55 AM 22.3°F-5.4°C 15.3°F-9.3°C 74% 3.0 mph NW4.8 kmh NW 5.0 mph8.0 kmh 30.36 in1028.1 mb 0.00 in0.0 mm 0.00 in0.0 mm 0.00 in0.0 mm
03:00 AM 22.3°F-5.4°C 15.3°F-9.3°C 74% 5.0 mph NW8.0 kmh NW 6.0 mph9.7 kmh 30.36 in1028.1 mb 0.00 in0.0 mm 0.00 in0.0 mm 0.00 in0.0 mm
03:05 AM 22.3°F-5.4°C 15.0°F-9.4°C 73% 4.0 mph NW6.4 kmh NW 6.0 mph9.7 kmh 30.36 in1028.1 mb 0.00 in0.0 mm 0.00 in0.0 mm 0.00 in0.0 mm
03:10 AM 22.2°F-5.4°C 14.6°F-9.7°C 72% 4.0 mph NW6.4 kmh NW 6.0 mph9.7 kmh 30.36 in1028.1 mb 0.00 in0.0 mm 0.00 in0.0 mm 0.00 in0.0 mm
03:15 AM 22.3°F-5.4°C 14.7°F-9.6°C 72% Calm Calm 4.0 mph6.4 kmh 30.37 in1028.4 mb 0.00 in0.0 mm 0.00 in0.0 mm 0.00 in0.0 mm
03:20 AM 22.3°F-5.4°C 14.7°F-9.6°C 72% 2.0 mph NW3.2 kmh NW 6.0 mph9.7 kmh 30.36 in1028.1 mb 0.00 in0.0 mm 0.00 in0.0 mm 0.00 in0.0 mm
03:25 AM 22.4°F-5.3°C 14.4°F-9.8°C 71% 4.0 mph NW6.4 kmh NW 8.0 mph12.9 kmh 30.36 in1028.1 mb 0.00 in0.0 mm 0.00 in0.0 mm 0.00 in0.0 mm
03:30 AM 22.5°F-5.3°C 14.5°F-9.7°C 71% 4.0 mph NW6.4 kmh NW 6.0 mph9.7 kmh 30.36 in1028.1 mb 0.00 in0.0 mm 0.00 in0.0 mm 0.00 in0.0 mm
03:35 AM 22.4°F-5.3°C 14.4°F-9.8°C 71% 2.0 mph NW3.2 kmh NW 6.0 mph9.7 kmh 30.36 in1028.1 mb 0.00 in0.0 mm 0.00 in0.0 mm 0.00 in0.0 mm
03:40 AM 22.5°F-5.3°C 14.5°F-9.7°C 71% 5.0 mph NW8.0 kmh NW 8.0 mph12.9 kmh 30.36 in1028.1 mb 0.00 in0.0 mm 0.00 in0.0 mm 0.00 in0.0 mm
03:45 AM 22.6°F-5.2°C 14.6°F-9.7°C 71% 3.0 mph NW4.8 kmh NW 6.0 mph9.7 kmh 30.36 in1028.1 mb 0.00 in0.0 mm 0.00 in0.0 mm 0.00 in0.0 mm
03:50 AM 22.5°F-5.3°C 14.2°F-9.9°C 70% 4.0 mph NW6.4 kmh NW 6.0 mph9.7 kmh 30.36 in1028.1 mb 0.00 in0.0 mm 0.00 in0.0 mm 0.00 in0.0 mm
03:55 AM 22.5°F-5.3°C 14.2°F-9.9°C 70% 5.0 mph NW8.0 kmh NW 6.0 mph9.7 kmh 30.36 in1028.1 mb 0.00 in0.0 mm 0.00 in0.0 mm 0.00 in0.0 mm
04:00 AM 22.6°F-5.2°C 14.6°F-9.7°C 71% 3.0 mph NW4.8 kmh NW 6.0 mph9.7 kmh 30.36 in1028.1 mb 0.00 in0.0 mm 0.00 in0.0 mm 0.00 in0.0 mm
04:05 AM 22.7°F-5.2°C 14.4°F-9.8°C 70% 6.0 mph NW9.7 kmh NW 9.0 mph14.5 kmh 30.36 in1028.1 mb 0.00 in0.0 mm 0.00 in0.0 mm 0.00 in0.0 mm
04:10 AM 22.9°F-5.1°C 14.6°F-9.7°C 70% 4.0 mph NW6.4 kmh NW 9.0 mph14.5 kmh 30.36 in1028.1 mb 0.00 in0.0 mm 0.00 in0.0 mm 0.00 in0.0 mm
04:15 AM 23.0°F-5.0°C 14.7°F-9.6°C 70% 5.0 mph NW8.0 kmh NW 8.0 mph12.9 kmh 30.36 in1028.1 mb 0.00 in0.0 mm 0.00 in0.0 mm 0.00 in0.0 mm
04:20 AM 23.1°F-4.9°C 14.8°F-9.6°C 70% 8.0 mph NNW12.9 kmh NNW 9.0 mph14.5 kmh 30.36 in1028.1 mb 0.00 in0.0 mm 0.00 in0.0 mm 0.00 in0.0 mm
04:25 AM 23.2°F-4.9°C 14.9°F-9.5°C 70% 8.0 mph NW12.9 kmh NW 10.0 mph16.1 kmh 30.35 in1027.8 mb 0.00 in0.0 mm 0.00 in0.0 mm 0.00 in0.0 mm
04:30 AM 23.3°F-4.8°C 15.0°F-9.4°C 70% 4.0 mph NW6.4 kmh NW 9.0 mph14.5 kmh 30.36 in1028.1 mb 0.00 in0.0 mm 0.00 in0.0 mm 0.00 in0.0 mm
04:35 AM 23.3°F-4.8°C 14.7°F-9.6°C 69% 6.0 mph NW9.7 kmh NW 9.0 mph14.5 kmh 30.35 in1027.8 mb 0.00 in0.0 mm 0.00 in0.0 mm 0.00 in0.0 mm
04:40 AM 23.3°F-4.8°C 14.7°F-9.6°C 69% 4.0 mph NW6.4 kmh NW 9.0 mph14.5 kmh 30.36 in1028.1 mb 0.00 in0.0 mm 0.00 in0.0 mm 0.00 in0.0 mm
04:45 AM 23.3°F-4.8°C 14.7°F-9.6°C 69% 1.0 mph NW1.6 kmh NW 6.0 mph9.7 kmh 30.36 in1028.1 mb 0.00 in0.0 mm 0.00 in0.0 mm 0.00 in0.0 mm
04:50 AM 23.3°F-4.8°C 14.7°F-9.6°C 69% 4.0 mph NW6.4 kmh NW 6.0 mph9.7 kmh 30.37 in1028.4 mb 0.00 in0.0 mm 0.00 in0.0 mm 0.00 in0.0 mm
04:55 AM 23.4°F-4.8°C 14.8°F-9.6°C 69% 3.0 mph NW4.8 kmh NW 8.0 mph12.9 kmh 30.37 in1028.4 mb 0.00 in0.0 mm 0.00 in0.0 mm 0.00 in0.0 mm
05:00 AM 23.4°F-4.8°C 15.1°F-9.4°C 70% 2.0 mph NW3.2 kmh NW 5.0 mph8.0 kmh 30.37 in1028.4 mb 0.00 in0.0 mm 0.00 in0.0 mm 0.00 in0.0 mm
05:05 AM 23.4°F-4.8°C 15.1°F-9.4°C 70% 6.0 mph NW9.7 kmh NW 10.0 mph16.1 kmh 30.36 in1028.1 mb 0.00 in0.0 mm 0.00 in0.0 mm 0.00 in0.0 mm
05:10 AM 23.5°F-4.7°C 15.2°F-9.3°C 70% 3.0 mph NW4.8 kmh NW 10.0 mph16.1 kmh 30.36 in1028.1 mb 0.00 in0.0 mm 0.00 in0.0 mm 0.00 in0.0 mm
05:15 AM 23.5°F-4.7°C 15.5°F-9.2°C 71% 4.0 mph NW6.4 kmh NW 10.0 mph16.1 kmh 30.36 in1028.1 mb 0.00 in0.0 mm 0.00 in0.0 mm 0.00 in0.0 mm
05:20 AM 23.6°F-4.7°C 15.3°F-9.3°C 70% 6.0 mph NW9.7 kmh NW 10.0 mph16.1 kmh 30.36 in1028.1 mb 0.00 in0.0 mm 0.00 in0.0 mm 0.00 in0.0 mm
05:25 AM 23.6°F-4.7°C 14.9°F-9.5°C 69% 4.0 mph NW6.4 kmh NW 10.0 mph16.1 kmh 30.36 in1028.1 mb 0.00 in0.0 mm 0.00 in0.0 mm 0.00 in0.0 mm
05:30 AM 23.6°F-4.7°C 15.3°F-9.3°C 70% 9.0 mph NW14.5 kmh NW 9.0 mph14.5 kmh 30.36 in1028.1 mb 0.00 in0.0 mm 0.00 in0.0 mm 0.00 in0.0 mm
05:35 AM 23.6°F-4.7°C 14.9°F-9.5°C 69% 6.0 mph NW9.7 kmh NW 10.0 mph16.1 kmh 30.36 in1028.1 mb 0.00 in0.0 mm 0.00 in0.0 mm 0.00 in0.0 mm
05:40 AM 23.6°F-4.7°C 15.3°F-9.3°C 70% 4.0 mph NW6.4 kmh NW 10.0 mph16.1 kmh 30.37 in1028.4 mb 0.00 in0.0 mm 0.00 in0.0 mm 0.00 in0.0 mm
05:45 AM 23.6°F-4.7°C 14.9°F-9.5°C 69% 4.0 mph NW6.4 kmh NW 10.0 mph16.1 kmh 30.37 in1028.4 mb 0.00 in0.0 mm 0.00 in0.0 mm 0.00 in0.0 mm
05:50 AM 23.6°F-4.7°C 14.9°F-9.5°C 69% 5.0 mph NW8.0 kmh NW 10.0 mph16.1 kmh 30.37 in1028.4 mb 0.00 in0.0 mm 0.00 in0.0 mm 0.00 in0.0 mm
05:55 AM 23.6°F-4.7°C 14.6°F-9.7°C 68% 8.0 mph NW12.9 kmh NW 10.0 mph16.1 kmh 30.37 in1028.4 mb 0.00 in0.0 mm 0.00 in0.0 mm 0.00 in0.0 mm
06:00 AM 23.5°F-4.7°C 14.5°F-9.7°C 68% 6.0 mph NW9.7 kmh NW 8.0 mph12.9 kmh 30.37 in1028.4 mb 0.00 in0.0 mm 0.00 in0.0 mm 0.00 in0.0 mm
06:05 AM 23.5°F-4.7°C 14.5°F-9.7°C 68% 5.0 mph NW8.0 kmh NW 8.0 mph12.9 kmh 30.37 in1028.4 mb 0.00 in0.0 mm 0.00 in0.0 mm 0.00 in0.0 mm
06:10 AM 23.5°F-4.7°C 14.8°F-9.6°C 69% 4.0 mph NW6.4 kmh NW 9.0 mph14.5 kmh 30.37 in1028.4 mb 0.00 in0.0 mm 0.00 in0.0 mm 0.00 in0.0 mm
06:15 AM 23.4°F-4.8°C 14.4°F-9.8°C 68% 8.0 mph NNW12.9 kmh NNW 10.0 mph16.1 kmh 30.36 in1028.1 mb 0.00 in0.0 mm 0.00 in0.0 mm 0.00 in0.0 mm
06:20 AM 23.4°F-4.8°C 14.8°F-9.6°C 69% 10.0 mph NW16.1 kmh NW 12.0 mph19.3 kmh 30.37 in1028.4 mb 0.00 in0.0 mm 0.00 in0.0 mm 0.00 in0.0 mm
06:25 AM 23.4°F-4.8°C 14.1°F-9.9°C 67% 8.0 mph NNW12.9 kmh NNW 12.0 mph19.3 kmh 30.37 in1028.4 mb 0.00 in0.0 mm 0.00 in0.0 mm 0.00 in0.0 mm
06:30 AM 23.3°F-4.8°C 14.0°F-10.0°C 67% 5.0 mph NNW8.0 kmh NNW 9.0 mph14.5 kmh 30.37 in1028.4 mb 0.00 in0.0 mm 0.00 in0.0 mm 0.00 in0.0 mm
06:35 AM 23.2°F-4.9°C 13.5°F-10.3°C 66% 8.0 mph NNW12.9 kmh NNW 12.0 mph19.3 kmh 30.37 in1028.4 mb 0.00 in0.0 mm 0.00 in0.0 mm 0.00 in0.0 mm
06:40 AM 23.1°F-4.9°C 13.8°F-10.1°C 67% 8.0 mph NW12.9 kmh NW 13.0 mph20.9 kmh 30.37 in1028.4 mb 0.00 in0.0 mm 0.00 in0.0 mm 0.00 in0.0 mm
06:45 AM 23.1°F-4.9°C 14.1°F-9.9°C 68% 6.0 mph NNW9.7 kmh NNW 12.0 mph19.3 kmh 30.37 in1028.4 mb 0.00 in0.0 mm 0.00 in0.0 mm 0.00 in0.0 mm
06:50 AM 23.1°F-4.9°C 13.8°F-10.1°C 67% 11.0 mph NW17.7 kmh NW 14.0 mph22.5 kmh 30.37 in1028.4 mb 0.00 in0.0 mm 0.00 in0.0 mm 0.00 in0.0 mm
06:55 AM 23.1°F-4.9°C 13.8°F-10.1°C 67% 12.0 mph N19.3 kmh N 14.0 mph22.5 kmh 30.37 in1028.4 mb 0.00 in0.0 mm 0.00 in0.0 mm 0.00 in0.0 mm
07:00 AM 23.0°F-5.0°C 14.0°F-10.0°C 68% 8.0 mph NNW12.9 kmh NNW 13.0 mph20.9 kmh 30.37 in1028.4 mb 0.00 in0.0 mm 0.00 in0.0 mm 0.00 in0.0 mm
07:05 AM 23.2°F-4.9°C 14.6°F-9.7°C 69% 11.0 mph NNW17.7 kmh NNW 13.0 mph20.9 kmh 30.37 in1028.4 mb 0.00 in0.0 mm 0.00 in0.0 mm 0.00 in0.0 mm
07:10 AM 23.2°F-4.9°C 13.5°F-10.3°C 66% 10.0 mph NNW16.1 kmh NNW 13.0 mph20.9 kmh 30.38 in1028.8 mb 0.00 in0.0 mm 0.00 in0.0 mm 0.00 in0.0 mm
07:15 AM 23.1°F-4.9°C 13.8°F-10.1°C 67% 10.0 mph NNW16.1 kmh NNW 12.0 mph19.3 kmh 30.38 in1028.8 mb 0.00 in0.0 mm 0.00 in0.0 mm 0.00 in0.0 mm
07:20 AM 23.2°F-4.9°C 14.2°F-9.9°C 68% 11.0 mph N17.7 kmh N 13.0 mph20.9 kmh 30.37 in1028.4 mb 0.00 in0.0 mm 0.00 in0.0 mm 0.00 in0.0 mm
07:25 AM 23.3°F-4.8°C 14.7°F-9.6°C 69% 11.0 mph N17.7 kmh N 14.0 mph22.5 kmh 30.37 in1028.4 mb 0.00 in0.0 mm 0.00 in0.0 mm 0.00 in0.0 mm
07:30 AM 23.3°F-4.8°C 14.7°F-9.6°C 69% 10.0 mph NNW16.1 kmh NNW 12.0 mph19.3 kmh 30.37 in1028.4 mb 0.00 in0.0 mm 0.00 in0.0 mm 0.00 in0.0 mm
07:35 AM 23.3°F-4.8°C 14.7°F-9.6°C 69% 12.0 mph N19.3 kmh N 12.0 mph19.3 kmh 30.37 in1028.4 mb 0.00 in0.0 mm 0.00 in0.0 mm 0.00 in0.0 mm
07:40 AM 23.2°F-4.9°C 13.9°F-10.1°C 67% 9.0 mph N14.5 kmh N 14.0 mph22.5 kmh 30.37 in1028.4 mb 0.00 in0.0 mm 0.00 in0.0 mm 0.00 in0.0 mm
07:45 AM 23.3°F-4.8°C 14.3°F-9.8°C 68% 8.0 mph NNW12.9 kmh NNW 12.0 mph19.3 kmh 30.37 in1028.4 mb 0.00 in0.0 mm 0.00 in0.0 mm 0.00 in0.0 mm
07:50 AM 23.2°F-4.9°C 13.5°F-10.3°C 66% 5.0 mph NNW8.0 kmh NNW 12.0 mph19.3 kmh 30.38 in1028.8 mb 0.00 in0.0 mm 0.00 in0.0 mm 0.00 in0.0 mm
07:55 AM 23.1°F-4.9°C 13.5°F-10.3°C 66% 10.0 mph N16.1 kmh N 13.0 mph20.9 kmh 30.36 in1028.1 mb 0.00 in0.0 mm 0.00 in0.0 mm 0.00 in0.0 mm
08:00 AM 23.2°F-4.9°C 13.9°F-10.1°C 67% 10.0 mph N16.1 kmh N 12.0 mph19.3 kmh 30.37 in1028.4 mb 0.00 in0.0 mm 0.00 in0.0 mm 0.00 in0.0 mm
08:05 AM 23.2°F-4.9°C 13.9°F-10.1°C 67% 11.0 mph NNW17.7 kmh NNW 13.0 mph20.9 kmh 30.37 in1028.4 mb 0.00 in0.0 mm 0.00 in0.0 mm 0.00 in0.0 mm
08:10 AM 23.1°F-4.9°C 13.1°F-10.5°C 65% 10.0 mph N16.1 kmh N 14.0 mph22.5 kmh 30.37 in1028.4 mb 0.00 in0.0 mm 0.00 in0.0 mm 0.00 in0.0 mm
08:15 AM 23.3°F-4.8°C 14.3°F-9.8°C 68% 11.0 mph N17.7 kmh N 14.0 mph22.5 kmh 30.37 in1028.4 mb 0.00 in0.0 mm 0.00 in0.0 mm 0.00 in0.0 mm
08:20 AM 23.2°F-4.9°C 13.9°F-10.1°C 67% 8.0 mph NW12.9 kmh NW 14.0 mph22.5 kmh 30.37 in1028.4 mb 0.00 in0.0 mm 0.00 in0.0 mm 0.00 in0.0 mm
08:25 AM 23.1°F-4.9°C 13.1°F-10.5°C 65% 9.0 mph NW14.5 kmh NW 14.0 mph22.5 kmh 30.37 in1028.4 mb 0.00 in0.0 mm 0.00 in0.0 mm 0.00 in0.0 mm
08:30 AM 23.0°F-5.0°C 12.7°F-10.7°C 64% 9.0 mph NNW14.5 kmh NNW 15.0 mph24.1 kmh 30.38 in1028.8 mb 0.00 in0.0 mm 0.00 in0.0 mm 0.00 in0.0 mm
08:35 AM 23.1°F-4.9°C 12.8°F-10.7°C 64% 11.0 mph NW17.7 kmh NW 15.0 mph24.1 kmh 30.38 in1028.8 mb 0.00 in0.0 mm 0.00 in0.0 mm 0.00 in0.0 mm
08:40 AM 23.1°F-4.9°C 12.8°F-10.7°C 64% 11.0 mph NNW17.7 kmh NNW 15.0 mph24.1 kmh 30.38 in1028.8 mb 0.00 in0.0 mm 0.00 in0.0 mm 0.00 in0.0 mm
08:45 AM 23.2°F-4.9°C 12.8°F-10.7°C 64% 10.0 mph NW16.1 kmh NW 11.0 mph17.7 kmh 30.38 in1028.8 mb 0.00 in0.0 mm 0.00 in0.0 mm 0.00 in0.0 mm
08:50 AM 23.3°F-4.8°C 12.6°F-10.8°C 63% 6.0 mph NNW9.7 kmh NNW 12.0 mph19.3 kmh 30.38 in1028.8 mb 0.00 in0.0 mm 0.00 in0.0 mm 0.00 in0.0 mm
08:55 AM 23.4°F-4.8°C 12.7°F-10.7°C 63% 9.0 mph NNW14.5 kmh NNW 12.0 mph19.3 kmh 30.37 in1028.4 mb 0.00 in0.0 mm 0.00 in0.0 mm 0.00 in0.0 mm
09:00 AM 23.4°F-4.8°C 12.7°F-10.7°C 63% 9.0 mph N14.5 kmh N 13.0 mph20.9 kmh 30.37 in1028.4 mb 0.00 in0.0 mm 0.00 in0.0 mm 0.00 in0.0 mm
09:05 AM 23.8°F-4.6°C 13.4°F-10.3°C 64% 10.0 mph N16.1 kmh N 13.0 mph20.9 kmh 30.37 in1028.4 mb 0.00 in0.0 mm 0.00 in0.0 mm 0.00 in0.0 mm
09:10 AM 23.8°F-4.6°C 13.4°F-10.3°C 64% 10.0 mph N16.1 kmh N 13.0 mph20.9 kmh 30.37 in1028.4 mb 0.00 in0.0 mm 0.00 in0.0 mm 0.00 in0.0 mm
09:15 AM 23.7°F-4.6°C 13.3°F-10.4°C 64% 9.0 mph N14.5 kmh N 14.0 mph22.5 kmh 30.37 in1028.4 mb 0.00 in0.0 mm 0.00 in0.0 mm 0.00 in0.0 mm
09:20 AM 23.8°F-4.6°C 13.8°F-10.1°C 65% 12.0 mph N19.3 kmh N 16.0 mph25.7 kmh 30.37 in1028.4 mb 0.00 in0.0 mm 0.00 in0.0 mm 0.00 in0.0 mm
09:25 AM 23.9°F-4.5°C 14.6°F-9.7°C 67% 10.0 mph N16.1 kmh N 16.0 mph25.7 kmh 30.36 in1028.1 mb 0.00 in0.0 mm 0.00 in0.0 mm 0.00 in0.0 mm
09:30 AM 23.9°F-4.5°C 13.5°F-10.3°C 64% 8.0 mph N12.9 kmh N 12.0 mph19.3 kmh 30.36 in1028.1 mb 0.00 in0.0 mm 0.00 in0.0 mm 0.00 in0.0 mm
09:35 AM 24.0°F-4.4°C 14.3°F-9.8°C 66% 9.0 mph N14.5 kmh N 12.0 mph19.3 kmh 30.37 in1028.4 mb 0.00 in0.0 mm 0.00 in0.0 mm 0.00 in0.0 mm
09:40 AM 24.0°F-4.4°C 14.0°F-10.0°C 65% 12.0 mph N19.3 kmh N 13.0 mph20.9 kmh 30.37 in1028.4 mb 0.00 in0.0 mm 0.00 in0.0 mm 0.00 in0.0 mm
09:45 AM 24.0°F-4.4°C 14.0°F-10.0°C 65% 6.0 mph N9.7 kmh N 12.0 mph19.3 kmh 30.36 in1028.1 mb 0.00 in0.0 mm 0.00 in0.0 mm 0.00 in0.0 mm
09:50 AM 24.2°F-4.3°C 14.2°F-9.9°C 65% 9.0 mph NNW14.5 kmh NNW 12.0 mph19.3 kmh 30.37 in1028.4 mb 0.00 in0.0 mm 0.00 in0.0 mm 0.00 in0.0 mm
09:55 AM 24.1°F-4.4°C 13.3°F-10.4°C 63% 9.0 mph N14.5 kmh N 12.0 mph19.3 kmh 30.36 in1028.1 mb 0.00 in0.0 mm 0.00 in0.0 mm 0.00 in0.0 mm
10:00 AM 24.2°F-4.3°C 13.4°F-10.3°C 63% 6.0 mph N9.7 kmh N 11.0 mph17.7 kmh 30.36 in1028.1 mb 0.00 in0.0 mm 0.00 in0.0 mm 0.00 in0.0 mm
10:05 AM 24.2°F-4.3°C 13.4°F-10.3°C 63% 10.0 mph N16.1 kmh N 13.0 mph20.9 kmh 30.36 in1028.1 mb 0.00 in0.0 mm 0.00 in0.0 mm 0.00 in0.0 mm
10:10 AM 24.4°F-4.2°C 14.7°F-9.6°C 66% 11.0 mph N17.7 kmh N 15.0 mph24.1 kmh 30.36 in1028.1 mb 0.00 in0.0 mm 0.00 in0.0 mm 0.00 in0.0 mm
10:15 AM 24.4°F-4.2°C 14.3°F-9.8°C 65% 10.0 mph NNE16.1 kmh NNE 13.0 mph20.9 kmh 30.36 in1028.1 mb 0.00 in0.0 mm 0.00 in0.0 mm 0.00 in0.0 mm
10:20 AM 24.5°F-4.2°C 14.1°F-9.9°C 64% 14.0 mph N22.5 kmh N 16.0 mph25.7 kmh 30.36 in1028.1 mb 0.00 in0.0 mm 0.00 in0.0 mm 0.00 in0.0 mm
10:25 AM 24.5°F-4.2°C 14.1°F-9.9°C 64% 9.0 mph N14.5 kmh N 16.0 mph25.7 kmh 30.36 in1028.1 mb 0.00 in0.0 mm 0.00 in0.0 mm 0.00 in0.0 mm
10:30 AM 24.6°F-4.1°C 14.2°F-9.9°C 64% 11.0 mph N17.7 kmh N 12.0 mph19.3 kmh 30.35 in1027.8 mb 0.00 in0.0 mm 0.00 in0.0 mm 0.00 in0.0 mm
10:35 AM 24.7°F-4.1°C 14.3°F-9.8°C 64% 8.0 mph N12.9 kmh N 13.0 mph20.9 kmh 30.36 in1028.1 mb 0.00 in0.0 mm 0.00 in0.0 mm 0.00 in0.0 mm
10:40 AM 24.8°F-4.0°C 15.1°F-9.4°C 66% 9.0 mph N14.5 kmh N 13.0 mph20.9 kmh 30.35 in1027.8 mb 0.00 in0.0 mm 0.00 in0.0 mm 0.00 in0.0 mm
10:45 AM 24.8°F-4.0°C 15.1°F-9.4°C 66% 9.0 mph N14.5 kmh N 9.0 mph14.5 kmh 30.35 in1027.8 mb 0.00 in0.0 mm 0.00 in0.0 mm 0.00 in0.0 mm
10:50 AM 24.9°F-3.9°C 15.2°F-9.3°C 66% 10.0 mph N16.1 kmh N 12.0 mph19.3 kmh 30.35 in1027.8 mb 0.00 in0.0 mm 0.00 in0.0 mm 0.00 in0.0 mm
10:55 AM 25.0°F-3.9°C 15.3°F-9.3°C 66% 6.0 mph N9.7 kmh N 12.0 mph19.3 kmh 30.35 in1027.8 mb 0.00 in0.0 mm 0.00 in0.0 mm 0.00 in0.0 mm
11:00 AM 25.0°F-3.9°C 14.9°F-9.5°C 65% 11.0 mph N17.7 kmh N 13.0 mph20.9 kmh 30.35 in1027.8 mb 0.00 in0.0 mm 0.00 in0.0 mm 0.00 in0.0 mm
11:05 AM 25.1°F-3.8°C 15.4°F-9.2°C 66% 6.0 mph NNW9.7 kmh NNW 13.0 mph20.9 kmh 30.35 in1027.8 mb 0.00 in0.0 mm 0.00 in0.0 mm 0.00 in0.0 mm
11:10 AM 25.1°F-3.8°C 15.4°F-9.2°C 66% 9.0 mph N14.5 kmh N 13.0 mph20.9 kmh 30.35 in1027.8 mb 0.00 in0.0 mm 0.00 in0.0 mm 0.00 in0.0 mm
11:15 AM 25.1°F-3.8°C 15.0°F-9.4°C 65% 8.0 mph NNW12.9 kmh NNW 10.0 mph16.1 kmh 30.35 in1027.8 mb 0.00 in0.0 mm 0.00 in0.0 mm 0.00 in0.0 mm
11:20 AM 25.1°F-3.8°C 15.7°F-9.1°C 67% 9.0 mph N14.5 kmh N 11.0 mph17.7 kmh 30.34 in1027.4 mb 0.00 in0.0 mm 0.00 in0.0 mm 0.00 in0.0 mm
11:25 AM 25.0°F-3.9°C 16.0°F-8.9°C 68% 4.0 mph N6.4 kmh N 11.0 mph17.7 kmh 30.34 in1027.4 mb 0.00 in0.0 mm 0.00 in0.0 mm 0.00 in0.0 mm
11:30 AM 24.9°F-3.9°C 16.2°F-8.8°C 69% 8.0 mph NNW12.9 kmh NNW 10.0 mph16.1 kmh 30.35 in1027.8 mb 0.00 in0.0 mm 0.00 in0.0 mm 0.00 in0.0 mm
11:35 AM 24.8°F-4.0°C 16.8°F-8.4°C 71% 8.0 mph NW12.9 kmh NW 11.0 mph17.7 kmh 30.35 in1027.8 mb 0.00 in0.0 mm 0.00 in0.0 mm 0.00 in0.0 mm
11:40 AM 24.5°F-4.2°C 16.8°F-8.4°C 72% 8.0 mph NW12.9 kmh NW 11.0 mph17.7 kmh 30.34 in1027.4 mb 0.00 in0.0 mm 0.00 in0.0 mm 0.00 in0.0 mm
11:45 AM 24.3°F-4.3°C 16.9°F-8.4°C 73% 5.0 mph NW8.0 kmh NW 9.0 mph14.5 kmh 30.34 in1027.4 mb 0.00 in0.0 mm 0.00 in0.0 mm 0.00 in0.0 mm
11:50 AM 24.0°F-4.4°C 17.2°F-8.2°C 75% 4.0 mph NW6.4 kmh NW 9.0 mph14.5 kmh 30.35 in1027.8 mb 0.00 in0.0 mm 0.00 in0.0 mm 0.00 in0.0 mm
11:55 AM 23.8°F-4.6°C 17.7°F-7.9°C 77% 4.0 mph NW6.4 kmh NW 9.0 mph14.5 kmh 30.34 in1027.4 mb 0.00 in0.0 mm 0.00 in0.0 mm 0.00 in0.0 mm
12:00 PM 23.6°F-4.7°C 17.8°F-7.9°C 78% 6.0 mph NW9.7 kmh NW 8.0 mph12.9 kmh 30.33 in1027.1 mb 0.00 in0.0 mm 0.00 in0.0 mm 0.00 in0.0 mm
12:05 PM 23.2°F-4.9°C 17.7°F-7.9°C 79% 3.0 mph NW4.8 kmh NW 8.0 mph12.9 kmh 30.33 in1027.1 mb 0.00 in0.0 mm 0.00 in0.0 mm 0.00 in0.0 mm
12:10 PM 22.9°F-5.1°C 18.0°F-7.8°C 81% 3.0 mph NW4.8 kmh NW 8.0 mph12.9 kmh 30.33 in1027.1 mb 0.00 in0.0 mm 0.00 in0.0 mm 0.00 in0.0 mm
12:15 PM 22.9°F-5.1°C 18.2°F-7.7°C 82% 3.0 mph NW4.8 kmh NW 6.0 mph9.7 kmh 30.32 in1026.8 mb 0.00 in0.0 mm 0.00 in0.0 mm 0.00 in0.0 mm
12:20 PM 23.0°F-5.0°C 18.6°F-7.4°C 83% 3.0 mph NW4.8 kmh NW 6.0 mph9.7 kmh 30.32 in1026.8 mb 0.00 in0.0 mm 0.00 in0.0 mm 0.00 in0.0 mm
12:25 PM 22.9°F-5.1°C 18.5°F-7.5°C 83% 3.0 mph NW4.8 kmh NW 8.0 mph12.9 kmh 30.31 in1026.4 mb 0.00 in0.0 mm 0.00 in0.0 mm 0.00 in0.0 mm
12:30 PM 22.9°F-5.1°C 18.8°F-7.3°C 84% 4.0 mph NW6.4 kmh NW 4.0 mph6.4 kmh 30.31 in1026.4 mb 0.00 in0.0 mm 0.00 in0.0 mm 0.00 in0.0 mm
12:35 PM 22.9°F-5.1°C 18.8°F-7.3°C 84% 6.0 mph NW9.7 kmh NW 9.0 mph14.5 kmh 30.30 in1026.1 mb 0.00 in0.0 mm 0.00 in0.0 mm 0.00 in0.0 mm
12:40 PM 22.9°F-5.1°C 18.8°F-7.3°C 84% 4.0 mph NW6.4 kmh NW 9.0 mph14.5 kmh 30.30 in1026.1 mb 0.00 in0.0 mm 0.00 in0.0 mm 0.00 in0.0 mm
12:45 PM 22.8°F-5.1°C 19.0°F-7.2°C 85% 5.0 mph NW8.0 kmh NW 7.0 mph11.3 kmh 30.29 in1025.7 mb 0.00 in0.0 mm 0.00 in0.0 mm 0.00 in0.0 mm
12:50 PM 22.7°F-5.2°C 18.9°F-7.3°C 85% 3.0 mph NW4.8 kmh NW 7.0 mph11.3 kmh 30.29 in1025.7 mb 0.00 in0.0 mm 0.00 in0.0 mm 0.00 in0.0 mm
12:55 PM 22.6°F-5.2°C 18.8°F-7.3°C 85% 4.0 mph NW6.4 kmh NW 8.0 mph12.9 kmh 30.29 in1025.7 mb 0.00 in0.0 mm 0.00 in0.0 mm 0.00 in0.0 mm
01:00 PM 22.5°F-5.3°C 19.0°F-7.2°C 86% 4.0 mph NW6.4 kmh NW 7.0 mph11.3 kmh 30.28 in1025.4 mb 0.00 in0.0 mm 0.00 in0.0 mm 0.00 in0.0 mm
01:05 PM 22.6°F-5.2°C 19.1°F-7.2°C 86% 2.0 mph NW3.2 kmh NW 8.0 mph12.9 kmh 30.28 in1025.4 mb 0.00 in0.0 mm 0.00 in0.0 mm 0.00 in0.0 mm
01:10 PM 22.6°F-5.2°C 19.3°F-7.1°C 87% 1.0 mph NW1.6 kmh NW 8.0 mph12.9 kmh 30.28 in1025.4 mb 0.00 in0.0 mm 0.00 in0.0 mm 0.00 in0.0 mm
01:15 PM 22.6°F-5.2°C 19.3°F-7.1°C 87% 3.0 mph NW4.8 kmh NW 7.0 mph11.3 kmh 30.28 in1025.4 mb 0.00 in0.0 mm 0.00 in0.0 mm 0.00 in0.0 mm
01:20 PM 22.7°F-5.2°C 19.4°F-7.0°C 87% 1.0 mph NW1.6 kmh NW 7.0 mph11.3 kmh 30.28 in1025.4 mb 0.00 in0.0 mm 0.00 in0.0 mm 0.00 in0.0 mm
01:25 PM 22.7°F-5.2°C 19.4°F-7.0°C 87% 5.0 mph NW8.0 kmh NW 7.0 mph11.3 kmh 30.27 in1025.1 mb 0.00 in0.0 mm 0.00 in0.0 mm 0.00 in0.0 mm
01:30 PM 22.7°F-5.2°C 19.4°F-7.0°C 87% 2.0 mph NW3.2 kmh NW 5.0 mph8.0 kmh 30.27 in1025.1 mb 0.00 in0.0 mm 0.00 in0.0 mm 0.00 in0.0 mm
01:35 PM 22.7°F-5.2°C 19.4°F-7.0°C 87% 4.0 mph NW6.4 kmh NW 7.0 mph11.3 kmh 30.27 in1025.1 mb 0.00 in0.0 mm 0.00 in0.0 mm 0.00 in0.0 mm
01:40 PM 22.6°F-5.2°C 19.3°F-7.1°C 87% 3.0 mph NW4.8 kmh NW 7.0 mph11.3 kmh 30.27 in1025.1 mb 0.00 in0.0 mm 0.00 in0.0 mm 0.00 in0.0 mm
01:45 PM 22.7°F-5.2°C 19.4°F-7.0°C 87% 2.0 mph NW3.2 kmh NW 5.0 mph8.0 kmh 30.27 in1025.1 mb 0.00 in0.0 mm 0.00 in0.0 mm 0.00 in0.0 mm
01:50 PM 22.8°F-5.1°C 19.5°F-6.9°C 87% 4.0 mph NW6.4 kmh NW 7.0 mph11.3 kmh 30.27 in1025.1 mb 0.00 in0.0 mm 0.00 in0.0 mm 0.00 in0.0 mm
01:55 PM 22.9°F-5.1°C 19.6°F-6.9°C 87% 3.0 mph WNW4.8 kmh WNW 8.0 mph12.9 kmh 30.26 in1024.7 mb 0.00 in0.0 mm 0.00 in0.0 mm 0.00 in0.0 mm
02:00 PM 23.0°F-5.0°C 19.7°F-6.8°C 87% 4.0 mph WNW6.4 kmh WNW 7.0 mph11.3 kmh 30.26 in1024.7 mb 0.00 in0.0 mm 0.00 in0.0 mm 0.00 in0.0 mm
02:05 PM 23.0°F-5.0°C 19.7°F-6.8°C 87% 3.0 mph WNW4.8 kmh WNW 8.0 mph12.9 kmh 30.26 in1024.7 mb 0.00 in0.0 mm 0.00 in0.0 mm 0.00 in0.0 mm
02:10 PM 23.1°F-4.9°C 19.8°F-6.8°C 87% 6.0 mph W9.7 kmh W 10.0 mph16.1 kmh 30.26 in1024.7 mb 0.00 in0.0 mm 0.00 in0.0 mm 0.00 in0.0 mm
02:15 PM 23.1°F-4.9°C 19.8°F-6.8°C 87% 6.0 mph W9.7 kmh W 8.0 mph12.9 kmh 30.26 in1024.7 mb 0.00 in0.0 mm 0.00 in0.0 mm 0.00 in0.0 mm
02:20 PM 23.3°F-4.8°C 20.0°F-6.7°C 87% 3.0 mph W4.8 kmh W 8.0 mph12.9 kmh 30.27 in1025.1 mb 0.00 in0.0 mm 0.00 in0.0 mm 0.00 in0.0 mm
02:25 PM 23.4°F-4.8°C 20.1°F-6.6°C 87% 2.0 mph W3.2 kmh W 8.0 mph12.9 kmh 30.27 in1025.1 mb 0.00 in0.0 mm 0.00 in0.0 mm 0.00 in0.0 mm
02:30 PM 23.4°F-4.8°C 19.8°F-6.8°C 86% 6.0 mph W9.7 kmh W 10.0 mph16.1 kmh 30.27 in1025.1 mb 0.00 in0.0 mm 0.00 in0.0 mm 0.00 in0.0 mm
02:35 PM 23.4°F-4.8°C 19.8°F-6.8°C 86% 3.0 mph W4.8 kmh W 10.0 mph16.1 kmh 30.26 in1024.7 mb 0.00 in0.0 mm 0.00 in0.0 mm 0.00 in0.0 mm
02:40 PM 23.5°F-4.7°C 19.9°F-6.7°C 86% 8.0 mph WSW12.9 kmh WSW 10.0 mph16.1 kmh 30.26 in1024.7 mb 0.00 in0.0 mm 0.00 in0.0 mm 0.00 in0.0 mm
02:45 PM 23.4°F-4.8°C 19.8°F-6.8°C 86% 6.0 mph W9.7 kmh W 10.0 mph16.1 kmh 30.26 in1024.7 mb 0.00 in0.0 mm 0.00 in0.0 mm 0.00 in0.0 mm
02:50 PM 23.4°F-4.8°C 19.8°F-6.8°C 86% 4.0 mph W6.4 kmh W 12.0 mph19.3 kmh 30.26 in1024.7 mb 0.00 in0.0 mm 0.00 in0.0 mm 0.00 in0.0 mm
02:55 PM 23.4°F-4.8°C 19.8°F-6.8°C 86% 6.0 mph W9.7 kmh W 12.0 mph19.3 kmh 30.26 in1024.7 mb 0.00 in0.0 mm 0.00 in0.0 mm 0.00 in0.0 mm
03:00 PM 23.4°F-4.8°C 19.8°F-6.8°C 86% 7.0 mph WSW11.3 kmh WSW 9.0 mph14.5 kmh 30.26 in1024.7 mb 0.00 in0.0 mm 0.00 in0.0 mm 0.00 in0.0 mm
03:05 PM 23.4°F-4.8°C 19.8°F-6.8°C 86% 3.0 mph W4.8 kmh W 9.0 mph14.5 kmh 30.26 in1024.7 mb 0.00 in0.0 mm 0.00 in0.0 mm 0.00 in0.0 mm
03:10 PM 23.4°F-4.8°C 19.8°F-6.8°C 86% 4.0 mph WNW6.4 kmh WNW 9.0 mph14.5 kmh 30.26 in1024.7 mb 0.00 in0.0 mm 0.00 in0.0 mm 0.00 in0.0 mm
03:15 PM 23.3°F-4.8°C 19.7°F-6.8°C 86% 6.0 mph W9.7 kmh W 11.0 mph17.7 kmh 30.26 in1024.7 mb 0.00 in0.0 mm 0.00 in0.0 mm 0.00 in0.0 mm
03:20 PM 23.3°F-4.8°C 19.7°F-6.8°C 86% 4.0 mph W6.4 kmh W 11.0 mph17.7 kmh 30.26 in1024.7 mb 0.00 in0.0 mm 0.00 in0.0 mm 0.00 in0.0 mm
03:25 PM 23.3°F-4.8°C 19.7°F-6.8°C 86% 8.0 mph WNW12.9 kmh WNW 11.0 mph17.7 kmh 30.26 in1024.7 mb 0.00 in0.0 mm 0.00 in0.0 mm 0.00 in0.0 mm
03:30 PM 23.2°F-4.9°C 19.6°F-6.9°C 86% 3.0 mph NW4.8 kmh NW 9.0 mph14.5 kmh 30.26 in1024.7 mb 0.00 in0.0 mm 0.00 in0.0 mm 0.00 in0.0 mm
03:35 PM 23.1°F-4.9°C 19.5°F-6.9°C 86% 5.0 mph WNW8.0 kmh WNW 9.0 mph14.5 kmh 30.27 in1025.1 mb 0.00 in0.0 mm 0.00 in0.0 mm 0.00 in0.0 mm
03:40 PM 23.2°F-4.9°C 19.6°F-6.9°C 86% 4.0 mph W6.4 kmh W 9.0 mph14.5 kmh 30.27 in1025.1 mb 0.00 in0.0 mm 0.00 in0.0 mm 0.00 in0.0 mm
03:45 PM 23.1°F-4.9°C 19.5°F-6.9°C 86% 4.0 mph WNW6.4 kmh WNW 7.0 mph11.3 kmh 30.27 in1025.1 mb 0.00 in0.0 mm 0.00 in0.0 mm 0.00 in0.0 mm
03:50 PM 23.1°F-4.9°C 19.5°F-6.9°C 86% 2.0 mph W3.2 kmh W 8.0 mph12.9 kmh 30.27 in1025.1 mb 0.00 in0.0 mm 0.00 in0.0 mm 0.00 in0.0 mm
03:55 PM 23.1°F-4.9°C 19.5°F-6.9°C 86% 2.0 mph W3.2 kmh W 9.0 mph14.5 kmh 30.28 in1025.4 mb 0.00 in0.0 mm 0.00 in0.0 mm 0.00 in0.0 mm
04:00 PM 23.1°F-4.9°C 19.5°F-6.9°C 86% 7.0 mph WNW11.3 kmh WNW 13.0 mph20.9 kmh 30.28 in1025.4 mb 0.00 in0.0 mm 0.00 in0.0 mm 0.00 in0.0 mm
04:05 PM 23.0°F-5.0°C 19.5°F-6.9°C 86% 10.0 mph W16.1 kmh W 13.0 mph20.9 kmh 30.27 in1025.1 mb 0.00 in0.0 mm 0.00 in0.0 mm 0.00 in0.0 mm
04:10 PM 22.8°F-5.1°C 19.3°F-7.1°C 86% 4.0 mph W6.4 kmh W 13.0 mph20.9 kmh 30.28 in1025.4 mb 0.00 in0.0 mm 0.00 in0.0 mm 0.00 in0.0 mm
04:15 PM 22.6°F-5.2°C 19.1°F-7.2°C 86% 4.0 mph NW6.4 kmh NW 11.0 mph17.7 kmh 30.28 in1025.4 mb 0.00 in0.0 mm 0.00 in0.0 mm 0.00 in0.0 mm
04:20 PM 22.6°F-5.2°C 19.1°F-7.2°C 86% 8.0 mph W12.9 kmh W 11.0 mph17.7 kmh 30.28 in1025.4 mb 0.00 in0.0 mm 0.00 in0.0 mm 0.00 in0.0 mm
04:25 PM 22.6°F-5.2°C 19.1°F-7.2°C 86% 5.0 mph NW8.0 kmh NW 11.0 mph17.7 kmh 30.28 in1025.4 mb 0.00 in0.0 mm 0.00 in0.0 mm 0.00 in0.0 mm
04:30 PM 22.7°F-5.2°C 19.2°F-7.1°C 86% 4.0 mph W6.4 kmh W 9.0 mph14.5 kmh 30.28 in1025.4 mb 0.00 in0.0 mm 0.00 in0.0 mm 0.00 in0.0 mm
04:35 PM 22.6°F-5.2°C 19.1°F-7.2°C 86% 4.0 mph W6.4 kmh W 13.0 mph20.9 kmh 30.28 in1025.4 mb 0.00 in0.0 mm 0.00 in0.0 mm 0.00 in0.0 mm
04:40 PM 22.5°F-5.3°C 19.0°F-7.2°C 86% 4.0 mph W6.4 kmh W 13.0 mph20.9 kmh 30.29 in1025.7 mb 0.00 in0.0 mm 0.00 in0.0 mm 0.00 in0.0 mm
04:45 PM 22.6°F-5.2°C 19.1°F-7.2°C 86% 2.0 mph W3.2 kmh W 7.0 mph11.3 kmh 30.29 in1025.7 mb 0.00 in0.0 mm 0.00 in0.0 mm 0.00 in0.0 mm
04:50 PM 22.5°F-5.3°C 19.0°F-7.2°C 86% 8.0 mph NW12.9 kmh NW 10.0 mph16.1 kmh 30.28 in1025.4 mb 0.00 in0.0 mm 0.00 in0.0 mm 0.00 in0.0 mm
04:55 PM 22.5°F-5.3°C 19.0°F-7.2°C 86% 9.0 mph W14.5 kmh W 10.0 mph16.1 kmh 30.29 in1025.7 mb 0.00 in0.0 mm 0.00 in0.0 mm 0.00 in0.0 mm
05:00 PM 22.5°F-5.3°C 19.0°F-7.2°C 86% 8.0 mph W12.9 kmh W 10.0 mph16.1 kmh 30.29 in1025.7 mb 0.00 in0.0 mm 0.00 in0.0 mm 0.00 in0.0 mm
05:05 PM 22.5°F-5.3°C 19.0°F-7.2°C 86% 8.0 mph WNW12.9 kmh WNW 10.0 mph16.1 kmh 30.29 in1025.7 mb 0.00 in0.0 mm 0.00 in0.0 mm 0.00 in0.0 mm
05:10 PM 22.5°F-5.3°C 19.0°F-7.2°C 86% 2.0 mph W3.2 kmh W 10.0 mph16.1 kmh 30.29 in1025.7 mb 0.00 in0.0 mm 0.00 in0.0 mm 0.00 in0.0 mm
05:15 PM 22.5°F-5.3°C 19.0°F-7.2°C 86% 8.0 mph W12.9 kmh W 10.0 mph16.1 kmh 30.29 in1025.7 mb 0.00 in0.0 mm 0.00 in0.0 mm 0.00 in0.0 mm
05:20 PM 22.4°F-5.3°C 18.9°F-7.3°C 86% 5.0 mph NW8.0 kmh NW 12.0 mph19.3 kmh 30.29 in1025.7 mb 0.00 in0.0 mm 0.00 in0.0 mm 0.00 in0.0 mm
05:25 PM 22.4°F-5.3°C 18.9°F-7.3°C 86% 4.0 mph WNW6.4 kmh WNW 12.0 mph19.3 kmh 30.29 in1025.7 mb 0.00 in0.0 mm 0.00 in0.0 mm 0.00 in0.0 mm
05:30 PM 22.4°F-5.3°C 18.9°F-7.3°C 86% 7.0 mph W11.3 kmh W 8.0 mph12.9 kmh 30.29 in1025.7 mb 0.00 in0.0 mm 0.00 in0.0 mm 0.00 in0.0 mm
05:35 PM 22.4°F-5.3°C 18.9°F-7.3°C 86% 6.0 mph W9.7 kmh W 10.0 mph16.1 kmh 30.29 in1025.7 mb 0.00 in0.0 mm 0.00 in0.0 mm 0.00 in0.0 mm
05:40 PM 22.4°F-5.3°C 18.9°F-7.3°C 86% 4.0 mph W6.4 kmh W 10.0 mph16.1 kmh 30.28 in1025.4 mb 0.00 in0.0 mm 0.00 in0.0 mm 0.00 in0.0 mm
05:45 PM 22.4°F-5.3°C 18.9°F-7.3°C 86% 8.0 mph W12.9 kmh W 10.0 mph16.1 kmh 30.29 in1025.7 mb 0.00 in0.0 mm 0.00 in0.0 mm 0.00 in0.0 mm
05:50 PM 22.4°F-5.3°C 18.9°F-7.3°C 86% 4.0 mph W6.4 kmh W 10.0 mph16.1 kmh 30.29 in1025.7 mb 0.00 in0.0 mm 0.00 in0.0 mm 0.00 in0.0 mm
05:55 PM 22.4°F-5.3°C 18.9°F-7.3°C 86% 3.0 mph W4.8 kmh W 10.0 mph16.1 kmh 30.30 in1026.1 mb 0.00 in0.0 mm 0.00 in0.0 mm 0.00 in0.0 mm
06:00 PM 22.5°F-5.3°C 19.0°F-7.2°C 86% 3.0 mph WSW4.8 kmh WSW 8.0 mph12.9 kmh 30.31 in1026.4 mb 0.00 in0.0 mm 0.00 in0.0 mm 0.00 in0.0 mm
06:05 PM 22.5°F-5.3°C 19.0°F-7.2°C 86% 8.0 mph W12.9 kmh W 10.0 mph16.1 kmh 30.30 in1026.1 mb 0.00 in0.0 mm 0.00 in0.0 mm 0.00 in0.0 mm
06:10 PM 22.5°F-5.3°C 19.0°F-7.2°C 86% 11.0 mph W17.7 kmh W 11.0 mph17.7 kmh 30.31 in1026.4 mb 0.00 in0.0 mm 0.00 in0.0 mm 0.00 in0.0 mm
06:15 PM 22.5°F-5.3°C 19.0°F-7.2°C 86% 7.0 mph WSW11.3 kmh WSW 9.0 mph14.5 kmh 30.31 in1026.4 mb 0.00 in0.0 mm 0.00 in0.0 mm 0.00 in0.0 mm
06:20 PM 22.5°F-5.3°C 19.0°F-7.2°C 86% 6.0 mph WSW9.7 kmh WSW 12.0 mph19.3 kmh 30.32 in1026.8 mb 0.00 in0.0 mm 0.00 in0.0 mm 0.00 in0.0 mm
06:25 PM 22.5°F-5.3°C 19.0°F-7.2°C 86% 8.0 mph WSW12.9 kmh WSW 12.0 mph19.3 kmh 30.32 in1026.8 mb 0.00 in0.0 mm 0.00 in0.0 mm 0.00 in0.0 mm
06:30 PM 22.6°F-5.2°C 19.1°F-7.2°C 86% 2.0 mph W3.2 kmh W 8.0 mph12.9 kmh 30.32 in1026.8 mb 0.00 in0.0 mm 0.00 in0.0 mm 0.00 in0.0 mm
06:35 PM 22.6°F-5.2°C 19.1°F-7.2°C 86% 4.0 mph W6.4 kmh W 9.0 mph14.5 kmh 30.32 in1026.8 mb 0.00 in0.0 mm 0.00 in0.0 mm 0.00 in0.0 mm
06:40 PM 22.5°F-5.3°C 19.0°F-7.2°C 86% 8.0 mph W12.9 kmh W 9.0 mph14.5 kmh 30.32 in1026.8 mb 0.00 in0.0 mm 0.00 in0.0 mm 0.00 in0.0 mm
06:45 PM 22.6°F-5.2°C 19.1°F-7.2°C 86% 2.0 mph W3.2 kmh W 8.0 mph12.9 kmh 30.33 in1027.1 mb 0.00 in0.0 mm 0.00 in0.0 mm 0.00 in0.0 mm
06:50 PM 22.6°F-5.2°C 19.1°F-7.2°C 86% 3.0 mph W4.8 kmh W 9.0 mph14.5 kmh 30.32 in1026.8 mb 0.00 in0.0 mm 0.00 in0.0 mm 0.00 in0.0 mm
06:55 PM 22.7°F-5.2°C 19.2°F-7.1°C 86% 6.0 mph W9.7 kmh W 9.0 mph14.5 kmh 30.32 in1026.8 mb 0.00 in0.0 mm 0.00 in0.0 mm 0.00 in0.0 mm
07:00 PM 22.7°F-5.2°C 19.2°F-7.1°C 86% 2.0 mph W3.2 kmh W 9.0 mph14.5 kmh 30.33 in1027.1 mb 0.00 in0.0 mm 0.00 in0.0 mm 0.00 in0.0 mm
07:05 PM 22.7°F-5.2°C 19.2°F-7.1°C 86% 3.0 mph W4.8 kmh W 9.0 mph14.5 kmh 30.33 in1027.1 mb 0.00 in0.0 mm 0.00 in0.0 mm 0.00 in0.0 mm
07:10 PM 22.7°F-5.2°C 19.2°F-7.1°C 86% 2.0 mph W3.2 kmh W 9.0 mph14.5 kmh 30.33 in1027.1 mb 0.00 in0.0 mm 0.00 in0.0 mm 0.00 in0.0 mm
07:15 PM 22.7°F-5.2°C 19.2°F-7.1°C 86% 7.0 mph W11.3 kmh W 8.0 mph12.9 kmh 30.33 in1027.1 mb 0.00 in0.0 mm 0.00 in0.0 mm 0.00 in0.0 mm
07:20 PM 22.7°F-5.2°C 19.2°F-7.1°C 86% 2.0 mph W3.2 kmh W 9.0 mph14.5 kmh 30.33 in1027.1 mb 0.00 in0.0 mm 0.00 in0.0 mm 0.00 in0.0 mm
07:25 PM 22.7°F-5.2°C 19.2°F-7.1°C 86% 7.0 mph W11.3 kmh W 9.0 mph14.5 kmh 30.33 in1027.1 mb 0.00 in0.0 mm 0.00 in0.0 mm 0.00 in0.0 mm
07:30 PM 22.8°F-5.1°C 19.3°F-7.1°C 86% 4.0 mph W6.4 kmh W 8.0 mph12.9 kmh 30.33 in1027.1 mb 0.00 in0.0 mm 0.00 in0.0 mm 0.00 in0.0 mm
07:35 PM 22.8°F-5.1°C 19.3°F-7.1°C 86% 6.0 mph W9.7 kmh W 8.0 mph12.9 kmh 30.33 in1027.1 mb 0.00 in0.0 mm 0.00 in0.0 mm 0.00 in0.0 mm
07:40 PM 22.8°F-5.1°C 19.3°F-7.1°C 86% 2.0 mph W3.2 kmh W 10.0 mph16.1 kmh 30.34 in1027.4 mb 0.00 in0.0 mm 0.00 in0.0 mm 0.00 in0.0 mm
07:45 PM 22.8°F-5.1°C 19.0°F-7.2°C 85% 3.0 mph W4.8 kmh W 11.0 mph17.7 kmh 30.34 in1027.4 mb 0.00 in0.0 mm 0.00 in0.0 mm 0.00 in0.0 mm
07:50 PM 22.9°F-5.1°C 19.4°F-7.0°C 86% 4.0 mph W6.4 kmh W 11.0 mph17.7 kmh 30.34 in1027.4 mb 0.00 in0.0 mm 0.00 in0.0 mm 0.00 in0.0 mm
07:55 PM 22.9°F-5.1°C 19.4°F-7.0°C 86% 7.0 mph W11.3 kmh W 11.0 mph17.7 kmh 30.34 in1027.4 mb 0.00 in0.0 mm 0.00 in0.0 mm 0.00 in0.0 mm
08:00 PM 22.9°F-5.1°C 19.4°F-7.0°C 86% 4.0 mph W6.4 kmh W 9.0 mph14.5 kmh 30.34 in1027.4 mb 0.00 in0.0 mm 0.00 in0.0 mm 0.00 in0.0 mm
08:05 PM 22.9°F-5.1°C 19.4°F-7.0°C 86% 6.0 mph W9.7 kmh W 9.0 mph14.5 kmh 30.35 in1027.8 mb 0.00 in0.0 mm 0.00 in0.0 mm 0.00 in0.0 mm
08:10 PM 22.9°F-5.1°C 19.4°F-7.0°C 86% 7.0 mph W11.3 kmh W 9.0 mph14.5 kmh 30.34 in1027.4 mb 0.00 in0.0 mm 0.00 in0.0 mm 0.00 in0.0 mm
08:15 PM 23.0°F-5.0°C 19.5°F-6.9°C 86% 6.0 mph W9.7 kmh W 9.0 mph14.5 kmh 30.35 in1027.8 mb 0.00 in0.0 mm 0.00 in0.0 mm 0.00 in0.0 mm
08:20 PM 23.0°F-5.0°C 19.5°F-6.9°C 86% 3.0 mph W4.8 kmh W 9.0 mph14.5 kmh 30.34 in1027.4 mb 0.00 in0.0 mm 0.00 in0.0 mm 0.00 in0.0 mm
08:25 PM 23.1°F-4.9°C 19.5°F-6.9°C 86% 4.0 mph W6.4 kmh W 9.0 mph14.5 kmh 30.35 in1027.8 mb 0.00 in0.0 mm 0.00 in0.0 mm 0.00 in0.0 mm
08:30 PM 23.1°F-4.9°C 19.5°F-6.9°C 86% 2.0 mph W3.2 kmh W 8.0 mph12.9 kmh 30.35 in1027.8 mb 0.00 in0.0 mm 0.00 in0.0 mm 0.00 in0.0 mm
08:35 PM 23.1°F-4.9°C 19.5°F-6.9°C 86% 8.0 mph W12.9 kmh W 8.0 mph12.9 kmh 30.35 in1027.8 mb 0.00 in0.0 mm 0.00 in0.0 mm 0.00 in0.0 mm
08:40 PM 23.1°F-4.9°C 19.5°F-6.9°C 86% 2.0 mph WNW3.2 kmh WNW 9.0 mph14.5 kmh 30.35 in1027.8 mb 0.00 in0.0 mm 0.00 in0.0 mm 0.00 in0.0 mm
08:45 PM 23.0°F-5.0°C 19.5°F-6.9°C 86% 8.0 mph WNW12.9 kmh WNW 8.0 mph12.9 kmh 30.35 in1027.8 mb 0.00 in0.0 mm 0.00 in0.0 mm 0.00 in0.0 mm
08:50 PM 23.1°F-4.9°C 19.5°F-6.9°C 86% 2.0 mph W3.2 kmh W 9.0 mph14.5 kmh 30.35 in1027.8 mb 0.00 in0.0 mm 0.00 in0.0 mm 0.00 in0.0 mm
08:55 PM 23.1°F-4.9°C 19.5°F-6.9°C 86% 3.0 mph W4.8 kmh W 9.0 mph14.5 kmh 30.35 in1027.8 mb 0.00 in0.0 mm 0.00 in0.0 mm 0.00 in0.0 mm
09:00 PM 23.2°F-4.9°C 19.6°F-6.9°C 86% 4.0 mph W6.4 kmh W 9.0 mph14.5 kmh 30.35 in1027.8 mb 0.00 in0.0 mm 0.00 in0.0 mm 0.00 in0.0 mm
09:05 PM 23.2°F-4.9°C 19.6°F-6.9°C 86% 3.0 mph W4.8 kmh W 10.0 mph16.1 kmh 30.35 in1027.8 mb 0.00 in0.0 mm 0.00 in0.0 mm 0.00 in0.0 mm
09:10 PM 23.2°F-4.9°C 19.6°F-6.9°C 86% 4.0 mph W6.4 kmh W 10.0 mph16.1 kmh 30.35 in1027.8 mb 0.00 in0.0 mm 0.00 in0.0 mm 0.00 in0.0 mm
09:15 PM 23.2°F-4.9°C 19.6°F-6.9°C 86% 6.0 mph WSW9.7 kmh WSW 10.0 mph16.1 kmh 30.35 in1027.8 mb 0.00 in0.0 mm 0.00 in0.0 mm 0.00 in0.0 mm
09:20 PM 23.2°F-4.9°C 19.6°F-6.9°C 86% 4.0 mph W6.4 kmh W 10.0 mph16.1 kmh 30.35 in1027.8 mb 0.00 in0.0 mm 0.00 in0.0 mm 0.00 in0.0 mm
09:25 PM 23.2°F-4.9°C 19.6°F-6.9°C 86% 7.0 mph WSW11.3 kmh WSW 10.0 mph16.1 kmh 30.35 in1027.8 mb 0.00 in0.0 mm 0.00 in0.0 mm 0.00 in0.0 mm
09:30 PM 23.2°F-4.9°C 19.6°F-6.9°C 86% 6.0 mph W9.7 kmh W 9.0 mph14.5 kmh 30.35 in1027.8 mb 0.00 in0.0 mm 0.00 in0.0 mm 0.00 in0.0 mm
09:35 PM 23.1°F-4.9°C 19.5°F-6.9°C 86% 8.0 mph WSW12.9 kmh WSW 13.0 mph20.9 kmh 30.35 in1027.8 mb 0.00 in0.0 mm 0.00 in0.0 mm 0.00 in0.0 mm
09:40 PM 23.1°F-4.9°C 19.5°F-6.9°C 86% 7.0 mph W11.3 kmh W 13.0 mph20.9 kmh 30.35 in1027.8 mb 0.00 in0.0 mm 0.00 in0.0 mm 0.00 in0.0 mm
09:45 PM 23.1°F-4.9°C 19.5°F-6.9°C 86% 4.0 mph W6.4 kmh W 10.0 mph16.1 kmh 30.36 in1028.1 mb 0.00 in0.0 mm 0.00 in0.0 mm 0.00 in0.0 mm
09:50 PM 23.1°F-4.9°C 19.5°F-6.9°C 86% 6.0 mph WSW9.7 kmh WSW 11.0 mph17.7 kmh 30.36 in1028.1 mb 0.00 in0.0 mm 0.00 in0.0 mm 0.00 in0.0 mm
09:55 PM 23.1°F-4.9°C 19.5°F-6.9°C 86% 5.0 mph WNW8.0 kmh WNW 11.0 mph17.7 kmh 30.36 in1028.1 mb 0.00 in0.0 mm 0.00 in0.0 mm 0.00 in0.0 mm
10:00 PM 23.1°F-4.9°C 19.5°F-6.9°C 86% 4.0 mph W6.4 kmh W 9.0 mph14.5 kmh 30.36 in1028.1 mb 0.00 in0.0 mm 0.00 in0.0 mm 0.00 in0.0 mm
10:05 PM 23.1°F-4.9°C 19.5°F-6.9°C 86% 4.0 mph WSW6.4 kmh WSW 10.0 mph16.1 kmh 30.36 in1028.1 mb 0.00 in0.0 mm 0.00 in0.0 mm 0.00 in0.0 mm
10:10 PM 23.2°F-4.9°C 19.6°F-6.9°C 86% 6.0 mph WSW9.7 kmh WSW 10.0 mph16.1 kmh 30.36 in1028.1 mb 0.00 in0.0 mm 0.00 in0.0 mm 0.00 in0.0 mm
10:15 PM 23.3°F-4.8°C 19.7°F-6.8°C 86% 4.0 mph WSW6.4 kmh WSW 7.0 mph11.3 kmh 30.36 in1028.1 mb 0.00 in0.0 mm 0.00 in0.0 mm 0.00 in0.0 mm
10:20 PM 23.3°F-4.8°C 19.7°F-6.8°C 86% 6.0 mph W9.7 kmh W 8.0 mph12.9 kmh 30.36 in1028.1 mb 0.00 in0.0 mm 0.00 in0.0 mm 0.00 in0.0 mm
10:25 PM 23.3°F-4.8°C 19.7°F-6.8°C 86% 1.0 mph W1.6 kmh W 8.0 mph12.9 kmh 30.36 in1028.1 mb 0.00 in0.0 mm 0.00 in0.0 mm 0.00 in0.0 mm
10:30 PM 23.3°F-4.8°C 19.7°F-6.8°C 86% 6.0 mph W9.7 kmh W 8.0 mph12.9 kmh 30.36 in1028.1 mb 0.00 in0.0 mm 0.00 in0.0 mm 0.00 in0.0 mm
10:35 PM 23.3°F-4.8°C 19.7°F-6.8°C 86% 1.0 mph W1.6 kmh W 8.0 mph12.9 kmh 30.36 in1028.1 mb 0.00 in0.0 mm 0.00 in0.0 mm 0.00 in0.0 mm
10:40 PM 23.3°F-4.8°C 19.7°F-6.8°C 86% 3.0 mph W4.8 kmh W 8.0 mph12.9 kmh 30.36 in1028.1 mb 0.00 in0.0 mm 0.00 in0.0 mm 0.00 in0.0 mm
10:45 PM 23.3°F-4.8°C 19.7°F-6.8°C 86% 4.0 mph W6.4 kmh W 7.0 mph11.3 kmh 30.36 in1028.1 mb 0.00 in0.0 mm 0.00 in0.0 mm 0.00 in0.0 mm
10:50 PM 23.4°F-4.8°C 19.8°F-6.8°C 86% 4.0 mph W6.4 kmh W 7.0 mph11.3 kmh 30.35 in1027.8 mb 0.00 in0.0 mm 0.00 in0.0 mm 0.00 in0.0 mm
10:55 PM 23.4°F-4.8°C 19.8°F-6.8°C 86% 3.0 mph W4.8 kmh W 7.0 mph11.3 kmh 30.36 in1028.1 mb 0.00 in0.0 mm 0.00 in0.0 mm 0.00 in0.0 mm
11:00 PM 23.4°F-4.8°C 19.8°F-6.8°C 86% 1.0 mph W1.6 kmh W 4.0 mph6.4 kmh 30.36 in1028.1 mb 0.00 in0.0 mm 0.00 in0.0 mm 0.00 in0.0 mm
11:05 PM 23.5°F-4.7°C 20.2°F-6.6°C 87% Calm Calm 4.0 mph6.4 kmh 30.36 in1028.1 mb 0.00 in0.0 mm 0.00 in0.0 mm 0.00 in0.0 mm
11:10 PM 23.6°F-4.7°C 20.3°F-6.5°C 87% 2.0 mph W3.2 kmh W 6.0 mph9.7 kmh 30.35 in1027.8 mb 0.00 in0.0 mm 0.00 in0.0 mm 0.00 in0.0 mm
11:15 PM 23.6°F-4.7°C 20.3°F-6.5°C 87% 4.0 mph W6.4 kmh W 6.0 mph9.7 kmh 30.35 in1027.8 mb 0.00 in0.0 mm 0.00 in0.0 mm 0.00 in0.0 mm
11:20 PM 23.5°F-4.7°C 20.2°F-6.6°C 87% Calm Calm 6.0 mph9.7 kmh 30.35 in1027.8 mb 0.00 in0.0 mm 0.00 in0.0 mm 0.00 in0.0 mm
11:25 PM 23.6°F-4.7°C 20.0°F-6.7°C 86% 2.0 mph W3.2 kmh W 6.0 mph9.7 kmh 30.35 in1027.8 mb 0.00 in0.0 mm 0.00 in0.0 mm 0.00 in0.0 mm
11:30 PM 23.6°F-4.7°C 20.0°F-6.7°C 86% 2.0 mph W3.2 kmh W 6.0 mph9.7 kmh 30.36 in1028.1 mb 0.00 in0.0 mm 0.00 in0.0 mm 0.00 in0.0 mm
11:35 PM 23.6°F-4.7°C 20.0°F-6.7°C 86% 2.0 mph W3.2 kmh W 7.0 mph11.3 kmh 30.36 in1028.1 mb 0.00 in0.0 mm 0.00 in0.0 mm 0.00 in0.0 mm
11:40 PM 23.6°F-4.7°C 20.0°F-6.7°C 86% 3.0 mph W4.8 kmh W 7.0 mph11.3 kmh 30.36 in1028.1 mb 0.00 in0.0 mm 0.00 in0.0 mm 0.00 in0.0 mm
11:45 PM 23.6°F-4.7°C 20.0°F-6.7°C 86% 1.0 mph W1.6 kmh W 6.0 mph9.7 kmh 30.37 in1028.4 mb 0.00 in0.0 mm 0.00 in0.0 mm 0.00 in0.0 mm
11:50 PM 23.6°F-4.7°C 20.0°F-6.7°C 86% 3.0 mph W4.8 kmh W 6.0 mph9.7 kmh 30.36 in1028.1 mb 0.00 in0.0 mm 0.00 in0.0 mm 0.00 in0.0 mm
11:55 PM 23.7°F-4.6°C 20.1°F-6.6°C 86% 2.0 mph W3.2 kmh W 7.0 mph11.3 kmh 30.36 in1028.1 mb 0.00 in0.0 mm 0.00 in0.0 mm 0.00 in0.0 mm